Time,TemperatureF,DewpointF,PressureIn,WindDirection,WindDirectionDegrees,WindSpeedMPH,WindSpeedGustMPH,Humidity,HourlyPrecipIn,Conditions,Clouds,dailyrainin,SoftwareType,DateUTC
2013-03-09 00:01:00,38.0,33.3,29.85,NW,315,0.0,0.0,83,0.00,,,0.00,WUHU216HW,2013-03-09 08:01:00,
2013-03-09 00:06:00,37.8,33.1,29.85,NW,315,0.0,0.4,83,0.00,,,0.00,WUHU216HW,2013-03-09 08:06:00,
2013-03-09 00:11:00,37.8,33.1,29.85,NW,315,0.0,0.4,83,0.00,,,0.00,WUHU216HW,2013-03-09 08:11:00,
2013-03-09 00:16:00,37.6,33.0,29.85,NW,315,0.0,0.0,83,0.00,,,0.00,WUHU216HW,2013-03-09 08:16:00,
2013-03-09 00:21:00,37.4,32.8,29.85,NW,315,0.0,0.0,83,0.00,,,0.00,WUHU216HW,2013-03-09 08:21:00,
2013-03-09 00:26:00,37.4,33.0,29.85,NW,315,0.0,0.0,84,0.00,,,0.00,WUHU216HW,2013-03-09 08:26:00,
2013-03-09 00:31:00,37.4,33.0,29.86,NW,315,0.0,0.0,84,0.00,,,0.00,WUHU216HW,2013-03-09 08:31:00,
2013-03-09 00:36:00,37.3,32.9,29.86,NW,315,0.0,0.0,84,0.00,,,0.00,WUHU216HW,2013-03-09 08:36:00,
2013-03-09 00:41:00,37.1,32.7,29.86,NW,315,0.0,0.0,84,0.00,,,0.00,WUHU216HW,2013-03-09 08:41:00,
2013-03-09 00:46:00,37.1,32.7,29.86,NW,315,0.0,0.0,84,0.00,,,0.00,WUHU216HW,2013-03-09 08:46:00,
2013-03-09 00:51:00,37.1,32.7,29.86,NW,315,0.0,0.0,84,0.00,,,0.00,WUHU216HW,2013-03-09 08:51:00,
2013-03-09 00:56:00,36.9,32.5,29.86,NW,315,0.0,0.0,84,0.00,,,0.00,WUHU216HW,2013-03-09 08:56:00,
2013-03-09 01:01:00,36.7,32.3,29.86,NW,315,0.0,0.0,84,0.00,,,0.00,WUHU216HW,2013-03-09 09:01:00,
2013-03-09 01:06:00,36.5,32.1,29.86,NW,315,0.0,0.0,84,0.00,,,0.00,WUHU216HW,2013-03-09 09:06:00,
2013-03-09 01:11:00,36.4,32.0,29.87,NW,315,0.0,0.0,84,0.00,,,0.00,WUHU216HW,2013-03-09 09:11:00,
2013-03-09 01:16:00,36.5,32.4,29.87,NW,315,0.0,0.4,85,0.00,,,0.00,WUHU216HW,2013-03-09 09:16:00,
2013-03-09 01:21:00,36.5,32.4,29.87,NW,315,0.0,0.4,85,0.00,,,0.00,WUHU216HW,2013-03-09 09:21:00,
2013-03-09 01:26:00,36.4,32.2,29.88,NW,315,0.0,0.0,85,0.00,,,0.00,WUHU216HW,2013-03-09 09:26:00,
2013-03-09 01:31:00,36.4,32.2,29.88,NW,315,0.0,0.0,85,0.00,,,0.00,WUHU216HW,2013-03-09 09:31:00,
2013-03-09 01:36:00,36.2,32.0,29.88,NW,315,0.0,0.0,85,0.00,,,0.00,WUHU216HW,2013-03-09 09:36:00,
2013-03-09 01:41:00,36.2,32.0,29.88,NW,315,0.0,0.0,85,0.00,,,0.00,WUHU216HW,2013-03-09 09:41:00,
2013-03-09 01:46:00,35.8,31.7,29.89,NW,315,0.0,0.0,85,0.00,,,0.00,WUHU216HW,2013-03-09 09:46:00,
2013-03-09 01:51:00,35.6,31.2,29.89,NW,315,0.0,0.0,84,0.00,,,0.00,WUHU216HW,2013-03-09 09:51:00,
2013-03-09 01:56:00,35.6,31.2,29.89,NW,315,0.0,0.0,84,0.00,,,0.00,WUHU216HW,2013-03-09 09:56:00,
2013-03-09 02:01:00,35.6,31.2,29.89,NW,315,0.0,0.0,84,0.00,,,0.00,WUHU216HW,2013-03-09 10:01:00,
2013-03-09 02:06:00,35.5,31.1,29.89,NW,315,0.0,0.0,84,0.00,,,0.00,WUHU216HW,2013-03-09 10:06:00,
2013-03-09 02:11:00,35.3,30.9,29.89,NW,315,0.0,0.0,84,0.00,,,0.00,WUHU216HW,2013-03-09 10:11:00,
2013-03-09 02:16:00,35.3,30.9,29.89,NW,315,0.0,0.0,84,0.00,,,0.00,WUHU216HW,2013-03-09 10:16:00,
2013-03-09 02:21:00,35.1,31.0,29.90,NW,315,0.0,0.0,85,0.00,,,0.00,WUHU216HW,2013-03-09 10:21:00,
2013-03-09 02:26:00,35.1,30.7,29.90,NW,315,0.0,0.0,84,0.00,,,0.00,WUHU216HW,2013-03-09 10:26:00,
2013-03-09 02:31:00,34.9,30.8,29.90,NW,315,0.0,0.0,85,0.00,,,0.00,WUHU216HW,2013-03-09 10:31:00,
2013-03-09 02:36:00,34.9,30.8,29.90,NW,315,0.0,0.0,85,0.00,,,0.00,WUHU216HW,2013-03-09 10:36:00,
2013-03-09 02:41:00,34.9,30.8,29.90,NW,315,0.0,0.0,85,0.00,,,0.00,WUHU216HW,2013-03-09 10:41:00,
2013-03-09 02:46:00,34.9,30.8,29.90,NW,315,0.0,0.0,85,0.00,,,0.00,WUHU216HW,2013-03-09 10:46:00,
2013-03-09 02:51:00,34.9,30.8,29.91,NW,315,0.2,0.2,85,0.00,,,0.00,WUHU216HW,2013-03-09 10:51:00,
2013-03-09 02:56:00,34.7,30.6,29.91,NW,315,0.0,0.2,85,0.00,,,0.00,WUHU216HW,2013-03-09 10:56:00,
2013-03-09 03:01:00,34.6,30.4,29.91,NW,315,0.0,0.0,85,0.00,,,0.00,WUHU216HW,2013-03-09 11:01:00,
2013-03-09 03:06:00,34.6,30.4,29.91,NW,315,0.0,0.0,85,0.00,,,0.00,WUHU216HW,2013-03-09 11:06:00,
2013-03-09 03:11:00,34.6,30.4,29.91,NW,315,0.0,0.0,85,0.00,,,0.00,WUHU216HW,2013-03-09 11:11:00,
2013-03-09 03:16:00,34.4,30.2,29.91,NW,315,0.0,0.0,85,0.00,,,0.00,WUHU216HW,2013-03-09 11:16:00,
2013-03-09 03:21:00,34.2,30.1,29.91,NW,315,0.0,0.0,85,0.00,,,0.00,WUHU216HW,2013-03-09 11:21:00,
2013-03-09 03:26:00,34.2,30.1,29.91,NW,315,0.0,0.0,85,0.00,,,0.00,WUHU216HW,2013-03-09 11:26:00,
2013-03-09 03:31:00,34.0,29.9,29.92,NW,315,0.0,0.0,85,0.00,,,0.00,WUHU216HW,2013-03-09 11:31:00,
2013-03-09 03:36:00,34.0,29.9,29.92,NW,315,0.0,0.0,85,0.00,,,0.00,WUHU216HW,2013-03-09 11:36:00,
2013-03-09 03:41:00,34.0,29.9,29.92,NW,315,0.0,0.0,85,0.00,,,0.00,WUHU216HW,2013-03-09 11:41:00,
2013-03-09 03:46:00,34.0,30.2,29.92,NW,315,0.0,0.4,86,0.00,,,0.00,WUHU216HW,2013-03-09 11:46:00,
2013-03-09 03:51:00,33.8,30.0,29.93,NW,315,0.0,0.4,86,0.00,,,0.00,WUHU216HW,2013-03-09 11:51:00,
2013-03-09 03:56:00,33.8,30.0,29.93,NW,315,0.0,0.0,86,0.00,,,0.00,WUHU216HW,2013-03-09 11:56:00,
2013-03-09 04:01:00,33.8,30.0,29.93,NW,315,0.0,0.0,86,0.00,,,0.00,WUHU216HW,2013-03-09 12:01:00,
2013-03-09 04:06:00,33.7,29.5,29.94,NW,315,0.0,0.0,85,0.00,,,0.00,WUHU216HW,2013-03-09 12:06:00,
2013-03-09 04:11:00,33.5,29.3,29.94,NW,315,0.0,0.0,85,0.00,,,0.00,WUHU216HW,2013-03-09 12:11:00,
2013-03-09 04:16:00,33.5,29.3,29.94,NW,315,0.0,0.0,85,0.00,,,0.00,WUHU216HW,2013-03-09 12:16:00,
2013-03-09 04:21:00,33.5,29.7,29.94,NW,315,0.0,0.0,86,0.00,,,0.00,WUHU216HW,2013-03-09 12:21:00,
2013-03-09 04:26:00,33.5,29.7,29.95,NW,315,0.0,0.0,86,0.00,,,0.00,WUHU216HW,2013-03-09 12:26:00,
2013-03-09 04:31:00,33.3,29.5,29.94,NW,315,0.0,0.0,86,0.00,,,0.00,WUHU216HW,2013-03-09 12:31:00,
2013-03-09 04:36:00,33.3,29.5,29.94,NW,315,0.0,0.4,86,0.00,,,0.00,WUHU216HW,2013-03-09 12:36:00,
2013-03-09 04:41:00,33.3,29.5,29.94,NW,315,0.4,0.4,86,0.00,,,0.00,WUHU216HW,2013-03-09 12:41:00,
2013-03-09 04:46:00,33.3,29.5,29.95,WNW,293,0.2,0.7,86,0.00,,,0.00,WUHU216HW,2013-03-09 12:46:00,
2013-03-09 04:51:00,33.3,29.5,29.95,WSW,248,0.3,0.7,86,0.00,,,0.00,WUHU216HW,2013-03-09 12:51:00,
2013-03-09 04:56:00,33.5,29.7,29.95,WSW,248,0.0,0.4,86,0.00,,,0.00,WUHU216HW,2013-03-09 12:56:00,
2013-03-09 05:01:00,33.5,29.7,29.95,WSW,248,0.2,0.2,86,0.00,,,0.00,WUHU216HW,2013-03-09 13:01:00,
2013-03-09 05:06:00,33.5,29.7,29.96,WSW,248,0.0,0.2,86,0.00,,,0.00,WUHU216HW,2013-03-09 13:06:00,
2013-03-09 05:11:00,33.5,29.7,29.96,WSW,248,0.0,0.2,86,0.00,,,0.00,WUHU216HW,2013-03-09 13:11:00,
2013-03-09 05:16:00,33.5,29.7,29.96,WSW,248,0.0,0.0,86,0.00,,,0.00,WUHU216HW,2013-03-09 13:16:00,
2013-03-09 05:21:00,33.5,29.7,29.96,WSW,248,0.0,0.0,86,0.00,,,0.00,WUHU216HW,2013-03-09 13:21:00,
2013-03-09 05:26:00,33.5,29.7,29.96,WSW,248,0.0,0.0,86,0.00,,,0.00,WUHU216HW,2013-03-09 13:26:00,
2013-03-09 05:31:00,33.5,29.7,29.96,WSW,248,0.0,0.0,86,0.00,,,0.00,WUHU216HW,2013-03-09 13:31:00,
2013-03-09 05:36:00,33.5,30.0,29.96,WSW,248,0.0,0.0,87,0.00,,,0.00,WUHU216HW,2013-03-09 13:36:00,
2013-03-09 05:41:00,33.3,29.5,29.96,WSW,248,0.0,0.0,86,0.00,,,0.00,WUHU216HW,2013-03-09 13:41:00,
2013-03-09 05:46:00,33.3,29.8,29.96,WSW,248,0.0,0.0,87,0.00,,,0.00,WUHU216HW,2013-03-09 13:46:00,
2013-03-09 05:51:00,33.3,29.8,29.97,WSW,248,0.0,0.0,87,0.00,,,0.00,WUHU216HW,2013-03-09 13:51:00,
2013-03-09 05:56:00,33.3,29.8,29.97,WSW,248,0.0,0.0,87,0.00,,,0.00,WUHU216HW,2013-03-09 13:56:00,
2013-03-09 06:01:00,33.3,29.8,29.97,WSW,248,0.0,0.0,87,0.00,,,0.00,WUHU216HW,2013-03-09 14:01:00,
2013-03-09 06:06:00,33.3,29.8,29.97,WSW,248,0.0,0.0,87,0.00,,,0.00,WUHU216HW,2013-03-09 14:06:00,
2013-03-09 06:11:00,33.5,30.0,29.97,WSW,248,0.0,0.2,87,0.00,,,0.00,WUHU216HW,2013-03-09 14:11:00,
2013-03-09 06:16:00,33.5,30.2,29.98,WSW,248,0.3,0.4,88,0.00,,,0.00,WUHU216HW,2013-03-09 14:16:00,
2013-03-09 06:21:00,33.7,30.4,29.98,WSW,248,0.0,0.4,88,0.00,,,0.00,WUHU216HW,2013-03-09 14:21:00,
2013-03-09 06:26:00,33.7,30.4,29.98,WSW,248,0.0,0.0,88,0.00,,,0.00,WUHU216HW,2013-03-09 14:26:00,
2013-03-09 06:31:00,33.8,30.6,29.98,WSW,248,0.0,0.0,88,0.00,,,0.00,WUHU216HW,2013-03-09 14:31:00,
2013-03-09 06:36:00,33.8,30.6,29.98,WSW,248,0.0,0.0,88,0.00,,,0.00,WUHU216HW,2013-03-09 14:36:00,
2013-03-09 06:41:00,34.0,30.8,29.98,WSW,248,0.0,0.0,88,0.00,,,0.00,WUHU216HW,2013-03-09 14:41:00,
2013-03-09 06:46:00,34.0,30.8,29.99,WSW,248,0.0,0.0,88,0.00,,,0.00,WUHU216HW,2013-03-09 14:46:00,
2013-03-09 06:51:00,34.2,31.0,29.99,WSW,248,0.0,0.0,88,0.00,,,0.00,WUHU216HW,2013-03-09 14:51:00,
2013-03-09 06:56:00,34.2,31.0,29.99,WSW,248,0.0,0.0,88,0.00,,,0.00,WUHU216HW,2013-03-09 14:56:00,
2013-03-09 07:01:00,34.4,31.2,30.00,WSW,248,0.0,0.0,88,0.00,,,0.00,WUHU216HW,2013-03-09 15:01:00,
2013-03-09 07:06:00,34.6,31.3,30.00,WSW,248,0.0,0.0,88,0.00,,,0.00,WUHU216HW,2013-03-09 15:06:00,
2013-03-09 07:11:00,34.6,31.3,30.00,WSW,248,0.0,0.4,88,0.00,,,0.00,WUHU216HW,2013-03-09 15:11:00,
2013-03-09 07:16:00,34.9,31.7,30.01,WSW,248,0.0,0.4,88,0.00,,,0.00,WUHU216HW,2013-03-09 15:16:00,
2013-03-09 07:21:00,35.1,31.9,30.01,WSW,248,0.0,0.0,88,0.00,,,0.00,WUHU216HW,2013-03-09 15:21:00,
2013-03-09 07:26:00,35.6,32.7,30.01,SE,135,0.7,0.7,89,0.00,,,0.00,WUHU216HW,2013-03-09 15:26:00,
2013-03-09 07:31:00,36.2,33.0,30.01,SE,135,0.0,0.7,88,0.00,,,0.00,WUHU216HW,2013-03-09 15:31:00,
2013-03-09 07:36:00,36.0,32.8,30.01,SSE,158,0.4,0.7,88,0.00,,,0.00,WUHU216HW,2013-03-09 15:36:00,
2013-03-09 07:41:00,36.0,32.8,30.01,SSE,158,0.0,0.7,88,0.00,,,0.00,WUHU216HW,2013-03-09 15:41:00,
2013-03-09 07:46:00,36.0,32.8,30.01,South,180,0.0,0.7,88,0.00,,,0.00,WUHU216HW,2013-03-09 15:46:00,
2013-03-09 07:51:00,36.4,33.1,30.02,WSW,248,0.4,1.1,88,0.00,,,0.00,WUHU216HW,2013-03-09 15:51:00,
2013-03-09 07:56:00,36.5,33.3,30.03,WSW,256,0.5,1.1,88,0.00,,,0.00,WUHU216HW,2013-03-09 15:56:00,
2013-03-09 08:01:00,37.1,33.9,30.03,South,181,0.4,0.9,88,0.00,,,0.00,WUHU216HW,2013-03-09 16:01:00,
2013-03-09 08:06:00,37.1,33.9,30.03,SW,225,0.4,0.9,88,0.00,,,0.00,WUHU216HW,2013-03-09 16:06:00,
2013-03-09 08:11:00,37.6,34.7,30.04,SSE,164,0.7,1.1,89,0.00,,,0.00,WUHU216HW,2013-03-09 16:11:00,
2013-03-09 08:16:00,38.3,35.4,30.04,WSW,248,1.1,1.1,89,0.00,,,0.00,WUHU216HW,2013-03-09 16:16:00,
2013-03-09 08:21:00,39.1,36.1,30.05,WSW,248,1.3,1.8,89,0.00,,,0.00,WUHU216HW,2013-03-09 16:21:00,
2013-03-09 08:26:00,39.8,36.5,30.05,WSW,248,2.7,2.7,88,0.00,,,0.00,WUHU216HW,2013-03-09 16:26:00,
2013-03-09 08:31:00,40.9,37.9,30.05,WSW,248,1.3,2.7,89,0.00,,,0.00,WUHU216HW,2013-03-09 16:31:00,
2013-03-09 08:36:00,42.1,38.8,30.05,WSW,247,1.2,2.7,88,0.00,,,0.00,WUHU216HW,2013-03-09 16:36:00,
2013-03-09 08:41:00,43.0,39.1,30.05,WSW,248,0.9,1.8,86,0.00,,,0.00,WUHU216HW,2013-03-09 16:41:00,
2013-03-09 08:46:00,43.7,40.2,30.06,West,265,1.0,2.0,87,0.00,,,0.00,WUHU216HW,2013-03-09 16:46:00,
2013-03-09 08:51:00,45.0,41.0,30.06,WSW,255,0.6,2.0,86,0.00,,,0.00,WUHU216HW,2013-03-09 16:51:00,
2013-03-09 08:56:00,45.4,40.9,30.06,SSE,158,2.9,2.9,84,0.00,,,0.00,WUHU216HW,2013-03-09 16:56:00,
2013-03-09 09:01:00,46.1,41.2,30.06,South,173,1.5,2.9,83,0.00,,,0.00,WUHU216HW,2013-03-09 17:01:00,
2013-03-09 09:06:00,46.3,40.8,30.06,South,180,3.4,3.4,81,0.00,,,0.00,WUHU216HW,2013-03-09 17:06:00,
2013-03-09 09:11:00,46.4,40.7,30.06,South,180,3.1,4.3,80,0.00,,,0.00,WUHU216HW,2013-03-09 17:11:00,
2013-03-09 09:16:00,46.4,40.3,30.06,SSE,158,2.5,4.3,79,0.00,,,0.00,WUHU216HW,2013-03-09 17:16:00,
2013-03-09 09:21:00,47.0,40.9,30.06,SE,140,2.7,4.0,79,0.00,,,0.00,WUHU216HW,2013-03-09 17:21:00,
2013-03-09 09:26:00,47.5,41.7,30.06,SSE,163,1.0,4.0,80,0.00,,,0.00,WUHU216HW,2013-03-09 17:26:00,
2013-03-09 09:31:00,48.2,41.9,30.06,South,180,3.8,4.7,79,0.00,,,0.00,WUHU216HW,2013-03-09 17:31:00,
2013-03-09 09:36:00,48.4,41.8,30.06,SE,135,2.7,4.7,78,0.00,,,0.00,WUHU216HW,2013-03-09 17:36:00,
2013-03-09 09:41:00,48.8,41.9,30.06,SSE,154,3.2,5.1,77,0.00,,,0.00,WUHU216HW,2013-03-09 17:41:00,
2013-03-09 09:46:00,49.1,41.9,30.07,SSW,194,2.7,5.1,76,0.00,,,0.00,WUHU216HW,2013-03-09 17:46:00,
2013-03-09 09:51:00,49.3,42.4,30.07,SSE,158,2.5,5.1,77,0.00,,,0.00,WUHU216HW,2013-03-09 17:51:00,
2013-03-09 09:56:00,49.3,42.0,30.07,South,180,3.1,4.3,76,0.00,,,0.00,WUHU216HW,2013-03-09 17:56:00,
2013-03-09 10:01:00,49.3,41.7,30.07,South,180,4.5,5.1,75,0.00,,,0.00,WUHU216HW,2013-03-09 18:01:00,
2013-03-09 10:06:00,49.3,41.0,30.07,SSE,148,4.1,6.3,73,0.00,,,0.00,WUHU216HW,2013-03-09 18:06:00,
2013-03-09 10:11:00,49.5,41.9,30.07,WSW,248,2.5,6.3,75,0.00,,,0.00,WUHU216HW,2013-03-09 18:11:00,
2013-03-09 10:16:00,50.0,42.0,30.06,South,180,2.5,4.0,74,0.00,,,0.00,WUHU216HW,2013-03-09 18:16:00,
2013-03-09 10:21:00,50.2,41.6,30.06,SSE,163,5.2,6.9,72,0.00,,,0.00,WUHU216HW,2013-03-09 18:21:00,
2013-03-09 10:26:00,50.2,41.6,30.07,SSE,162,2.2,6.9,72,0.00,,,0.00,WUHU216HW,2013-03-09 18:26:00,
2013-03-09 10:31:00,50.4,41.8,30.07,SSE,158,5.1,6.9,72,0.00,,,0.00,WUHU216HW,2013-03-09 18:31:00,
2013-03-09 10:36:00,50.4,42.0,30.07,SE,135,1.8,6.9,73,0.00,,,0.00,WUHU216HW,2013-03-09 18:36:00,
2013-03-09 10:41:00,50.8,42.1,30.07,SSE,159,2.9,5.1,72,0.00,,,0.00,WUHU216HW,2013-03-09 18:41:00,
2013-03-09 10:46:00,50.8,42.4,30.07,South,180,2.2,4.0,73,0.00,,,0.00,WUHU216HW,2013-03-09 18:46:00,
2013-03-09 10:51:00,51.1,42.5,30.07,South,180,4.9,4.9,72,0.00,,,0.00,WUHU216HW,2013-03-09 18:51:00,
2013-03-09 10:56:00,50.9,42.3,30.07,SE,135,5.1,5.1,72,0.00,,,0.00,WUHU216HW,2013-03-09 18:56:00,
2013-03-09 11:01:00,50.9,42.3,30.07,SW,235,3.2,5.1,72,0.00,,,0.00,WUHU216HW,2013-03-09 19:01:00,
2013-03-09 11:06:00,51.3,42.7,30.08,WSW,238,3.2,6.3,72,0.00,,,0.00,WUHU216HW,2013-03-09 19:06:00,
2013-03-09 11:11:00,51.5,42.9,30.08,WSW,245,4.1,6.3,72,0.00,,,0.00,WUHU216HW,2013-03-09 19:11:00,
2013-03-09 11:16:00,51.7,43.0,30.08,WSW,248,4.7,5.1,72,0.00,,,0.00,WUHU216HW,2013-03-09 19:16:00,
2013-03-09 11:21:00,51.8,43.2,30.08,South,184,2.2,4.7,72,0.00,,,0.00,WUHU216HW,2013-03-09 19:21:00,
2013-03-09 11:26:00,52.0,43.3,30.08,SSW,196,2.4,4.7,72,0.00,,,0.00,WUHU216HW,2013-03-09 19:26:00,
2013-03-09 11:31:00,51.7,42.7,30.08,SSE,152,4.2,5.6,71,0.00,,,0.00,WUHU216HW,2013-03-09 19:31:00,
2013-03-09 11:36:00,51.8,43.2,30.08,WNW,293,2.9,5.6,72,0.00,,,0.00,WUHU216HW,2013-03-09 19:36:00,
2013-03-09 11:41:00,51.8,42.9,30.08,South,184,1.8,4.3,71,0.00,,,0.00,WUHU216HW,2013-03-09 19:41:00,
2013-03-09 11:46:00,51.8,42.9,30.08,SSW,195,1.7,4.9,71,0.00,,,0.00,WUHU216HW,2013-03-09 19:46:00,
2013-03-09 11:51:00,52.0,43.0,30.08,WSW,250,2.6,4.9,71,0.00,,,0.00,WUHU216HW,2013-03-09 19:51:00,
2013-03-09 11:56:00,52.6,43.8,30.08,West,270,4.0,5.6,72,0.00,,,0.00,WUHU216HW,2013-03-09 19:56:00,
2013-03-09 12:01:00,52.9,44.2,30.08,West,269,2.0,5.6,72,0.00,,,0.00,WUHU216HW,2013-03-09 20:01:00,
2013-03-09 12:06:00,52.9,43.8,30.08,West,270,2.5,5.6,71,0.00,,,0.00,WUHU216HW,2013-03-09 20:06:00,
2013-03-09 12:11:00,52.9,43.8,30.08,West,270,5.1,5.6,71,0.00,,,0.00,WUHU216HW,2013-03-09 20:11:00,
2013-03-09 12:16:00,52.9,43.8,30.09,SSE,158,2.9,5.1,71,0.00,,,0.00,WUHU216HW,2013-03-09 20:16:00,
2013-03-09 12:21:00,53.1,44.0,30.08,SSE,159,2.7,5.1,71,0.00,,,0.00,WUHU216HW,2013-03-09 20:21:00,
2013-03-09 12:26:00,53.3,43.7,30.08,SE,135,2.2,4.3,70,0.00,,,0.00,WUHU216HW,2013-03-09 20:26:00,
2013-03-09 12:31:00,53.5,43.9,30.08,SSW,203,3.4,3.8,70,0.00,,,0.00,WUHU216HW,2013-03-09 20:31:00,
2013-03-09 12:36:00,53.6,44.1,30.08,WSW,252,1.7,4.0,70,0.00,,,0.00,WUHU216HW,2013-03-09 20:36:00,
2013-03-09 12:41:00,53.8,43.9,30.08,SE,135,2.5,4.0,69,0.00,,,0.00,WUHU216HW,2013-03-09 20:41:00,
2013-03-09 12:46:00,54.0,44.1,30.08,SSE,158,3.4,3.4,69,0.00,,,0.00,WUHU216HW,2013-03-09 20:46:00,
2013-03-09 12:51:00,54.4,44.5,30.08,SSW,210,1.9,4.0,69,0.00,,,0.00,WUHU216HW,2013-03-09 20:51:00,
2013-03-09 12:56:00,54.4,44.5,30.08,SW,228,1.5,4.0,69,0.00,,,0.00,WUHU216HW,2013-03-09 20:56:00,
2013-03-09 13:01:00,54.4,44.0,30.08,ESE,103,1.0,4.0,68,0.00,,,0.00,WUHU216HW,2013-03-09 21:01:00,
2013-03-09 13:06:00,54.7,44.4,30.08,SE,140,0.8,2.7,68,0.00,,,0.00,WUHU216HW,2013-03-09 21:06:00,
2013-03-09 13:11:00,54.9,44.1,30.08,North,0,1.8,1.8,67,0.00,,,0.00,WUHU216HW,2013-03-09 21:11:00,
2013-03-09 13:16:00,55.1,44.3,30.08,SW,233,1.4,2.7,67,0.00,,,0.00,WUHU216HW,2013-03-09 21:16:00,
2013-03-09 13:21:00,55.1,44.3,30.07,SSE,158,1.8,3.4,67,0.00,,,0.00,WUHU216HW,2013-03-09 21:21:00,
2013-03-09 13:26:00,55.3,44.5,30.07,SW,225,3.4,4.0,67,0.00,,,0.00,WUHU216HW,2013-03-09 21:26:00,
2013-03-09 13:31:00,55.3,44.1,30.07,SSE,158,1.8,4.0,66,0.00,,,0.00,WUHU216HW,2013-03-09 21:31:00,
2013-03-09 13:36:00,55.4,43.8,30.07,West,269,1.3,3.4,65,0.00,,,0.00,WUHU216HW,2013-03-09 21:36:00,
2013-03-09 13:41:00,55.6,43.6,30.07,SSE,147,1.7,4.0,64,0.00,,,0.00,WUHU216HW,2013-03-09 21:41:00,
2013-03-09 13:46:00,55.8,43.7,30.07,SSE,158,2.5,4.0,64,0.00,,,0.00,WUHU216HW,2013-03-09 21:46:00,
2013-03-09 13:51:00,56.0,43.9,30.07,WSW,254,2.5,3.8,64,0.00,,,0.00,WUHU216HW,2013-03-09 21:51:00,
2013-03-09 13:56:00,56.2,44.1,30.07,West,266,0.9,3.8,64,0.00,,,0.00,WUHU216HW,2013-03-09 21:56:00,
2013-03-09 14:01:00,56.5,44.5,30.07,North,0,1.6,3.4,64,0.00,,,0.00,WUHU216HW,2013-03-09 22:01:00,
2013-03-09 14:06:00,56.5,44.0,30.07,SSE,158,4.5,4.5,63,0.00,,,0.00,WUHU216HW,2013-03-09 22:06:00,
2013-03-09 14:11:00,56.9,44.4,30.06,South,175,1.3,4.5,63,0.00,,,0.00,WUHU216HW,2013-03-09 22:11:00,
2013-03-09 14:16:00,57.1,44.2,30.06,WNW,284,1.8,4.5,62,0.00,,,0.00,WUHU216HW,2013-03-09 22:16:00,
2013-03-09 14:21:00,57.1,43.7,30.06,NW,318,0.7,3.4,61,0.00,,,0.00,WUHU216HW,2013-03-09 22:21:00,
2013-03-09 14:26:00,57.2,43.6,30.06,ESE,114,1.3,3.4,60,0.00,,,0.00,WUHU216HW,2013-03-09 22:26:00,
2013-03-09 14:31:00,57.2,43.1,30.06,SSE,155,2.6,4.3,59,0.00,,,0.00,WUHU216HW,2013-03-09 22:31:00,
2013-03-09 14:36:00,57.4,43.8,30.06,NW,316,0.9,4.3,60,0.00,,,0.00,WUHU216HW,2013-03-09 22:36:00,
2013-03-09 14:41:00,57.6,43.4,30.06,ENE,68,2.5,2.5,59,0.00,,,0.00,WUHU216HW,2013-03-09 22:41:00,
2013-03-09 14:46:00,57.8,43.6,30.06,SE,135,2.0,2.5,59,0.00,,,0.00,WUHU216HW,2013-03-09 22:46:00,
2013-03-09 14:51:00,57.8,43.1,30.06,South,180,2.2,4.7,58,0.00,,,0.00,WUHU216HW,2013-03-09 22:51:00,
2013-03-09 14:56:00,57.8,42.2,30.06,ESE,113,2.7,4.7,56,0.00,,,0.00,WUHU216HW,2013-03-09 22:56:00,
2013-03-09 15:01:00,58.0,43.3,30.06,East,88,2.1,3.4,58,0.00,,,0.00,WUHU216HW,2013-03-09 23:01:00,
2013-03-09 15:06:00,57.8,43.1,30.05,North,8,1.1,3.4,58,0.00,,,0.00,WUHU216HW,2013-03-09 23:06:00,
2013-03-09 15:11:00,58.0,43.3,30.05,SSE,158,2.9,3.8,58,0.00,,,0.00,WUHU216HW,2013-03-09 23:11:00,
2013-03-09 15:16:00,58.0,42.9,30.05,SSE,158,1.6,4.5,57,0.00,,,0.00,WUHU216HW,2013-03-09 23:16:00,
2013-03-09 15:21:00,58.0,42.9,30.06,NNE,15,1.4,4.5,57,0.00,,,0.00,WUHU216HW,2013-03-09 23:21:00,
2013-03-09 15:26:00,58.0,42.3,30.06,SE,140,1.8,2.5,56,0.00,,,0.00,WUHU216HW,2013-03-09 23:26:00,
2013-03-09 15:31:00,58.0,42.3,30.05,West,270,1.1,2.5,56,0.00,,,0.00,WUHU216HW,2013-03-09 23:31:00,
2013-03-09 15:36:00,58.0,42.3,30.06,WNW,299,1.4,3.1,56,0.00,,,0.00,WUHU216HW,2013-03-09 23:36:00,
2013-03-09 15:41:00,58.0,41.9,30.05,SE,135,2.5,3.1,55,0.00,,,0.00,WUHU216HW,2013-03-09 23:41:00,
2013-03-09 15:46:00,58.1,42.5,30.05,SE,146,1.5,3.1,56,0.00,,,0.00,WUHU216HW,2013-03-09 23:46:00,
2013-03-09 15:51:00,58.0,41.9,30.05,SE,129,1.1,2.7,55,0.00,,,0.00,WUHU216HW,2013-03-09 23:51:00,
2013-03-09 15:56:00,58.0,42.3,30.06,NNW,338,1.1,2.9,56,0.00,,,0.00,WUHU216HW,2013-03-09 23:56:00,
2013-03-09 16:01:00,58.0,42.3,30.05,SE,135,1.3,2.9,56,0.00,,,0.00,WUHU216HW,2013-03-10 00:01:00,
2013-03-09 16:06:00,58.0,41.9,30.06,SE,135,2.7,3.4,55,0.00,,,0.00,WUHU216HW,2013-03-10 00:06:00,
2013-03-09 16:11:00,58.0,41.4,30.05,ESE,113,1.8,3.4,54,0.00,,,0.00,WUHU216HW,2013-03-10 00:11:00,
2013-03-09 16:16:00,58.0,41.4,30.05,SE,146,2.0,2.7,54,0.00,,,0.00,WUHU216HW,2013-03-10 00:16:00,
2013-03-09 16:21:00,57.8,41.2,30.05,ENE,67,2.5,3.1,54,0.00,,,0.00,WUHU216HW,2013-03-10 00:21:00,
2013-03-09 16:26:00,57.8,41.7,30.05,SE,133,1.3,3.1,55,0.00,,,0.00,WUHU216HW,2013-03-10 00:26:00,
2013-03-09 16:31:00,57.8,41.2,30.05,East,88,0.5,3.4,54,0.00,,,0.00,WUHU216HW,2013-03-10 00:31:00,
2013-03-09 16:36:00,57.6,41.0,30.05,North,0,0.4,3.4,54,0.00,,,0.00,WUHU216HW,2013-03-10 00:36:00,
2013-03-09 16:41:00,57.6,41.0,30.05,East,97,1.3,2.5,54,0.00,,,0.00,WUHU216HW,2013-03-10 00:41:00,
2013-03-09 16:46:00,57.4,41.0,30.05,SE,129,1.9,2.5,54,0.00,,,0.00,WUHU216HW,2013-03-10 00:46:00,
2013-03-09 16:51:00,57.2,40.8,30.05,SSW,205,0.6,2.9,54,0.00,,,0.00,WUHU216HW,2013-03-10 00:51:00,
2013-03-09 16:56:00,57.1,40.6,30.05,SSE,158,2.2,2.9,54,0.00,,,0.00,WUHU216HW,2013-03-10 00:56:00,
2013-03-09 17:01:00,56.9,40.4,30.05,SSE,157,1.8,3.1,54,0.00,,,0.00,WUHU216HW,2013-03-10 01:01:00,
2013-03-09 17:06:00,56.5,40.1,30.05,SSE,158,0.2,3.1,54,0.00,,,0.00,WUHU216HW,2013-03-10 01:06:00,
2013-03-09 17:11:00,56.3,39.9,30.05,SSE,158,0.0,1.6,54,0.00,,,0.00,WUHU216HW,2013-03-10 01:11:00,
2013-03-09 17:16:00,55.8,39.3,30.05,WNW,293,0.6,0.9,54,0.00,,,0.00,WUHU216HW,2013-03-10 01:16:00,
2013-03-09 17:21:00,55.4,39.4,30.06,WNW,284,0.7,1.1,55,0.00,,,0.00,WUHU216HW,2013-03-10 01:21:00,
2013-03-09 17:26:00,54.9,39.4,30.06,WNW,293,1.0,1.1,56,0.00,,,0.00,WUHU216HW,2013-03-10 01:26:00,
2013-03-09 17:31:00,54.4,39.4,30.06,WNW,293,0.7,1.1,57,0.00,,,0.00,WUHU216HW,2013-03-10 01:31:00,
2013-03-09 17:36:00,54.0,39.5,30.06,NW,311,1.1,1.8,58,0.00,,,0.00,WUHU216HW,2013-03-10 01:36:00,
2013-03-09 17:41:00,53.5,39.5,30.06,NW,311,1.2,1.8,59,0.00,,,0.00,WUHU216HW,2013-03-10 01:41:00,
2013-03-09 17:46:00,52.9,39.4,30.06,WNW,293,1.3,1.8,60,0.00,,,0.00,WUHU216HW,2013-03-10 01:46:00,
2013-03-09 17:51:00,52.6,39.1,30.06,NW,312,0.7,1.8,60,0.00,,,0.00,WUHU216HW,2013-03-10 01:51:00,
2013-03-09 17:56:00,52.2,39.2,30.07,WNW,302,1.1,1.6,61,0.00,,,0.00,WUHU216HW,2013-03-10 01:56:00,
2013-03-09 18:01:00,51.5,38.4,30.07,NW,310,0.8,1.3,61,0.00,,,0.00,WUHU216HW,2013-03-10 02:01:00,
2013-03-09 18:06:00,51.1,38.5,30.07,NW,315,0.8,1.3,62,0.00,,,0.00,WUHU216HW,2013-03-10 02:06:00,
2013-03-09 18:11:00,50.8,38.6,30.07,NW,315,0.4,1.3,63,0.00,,,0.00,WUHU216HW,2013-03-10 02:11:00,
2013-03-09 18:16:00,50.4,38.6,30.07,NW,315,0.4,0.7,64,0.00,,,0.00,WUHU216HW,2013-03-10 02:16:00,
2013-03-09 18:21:00,50.0,38.4,30.07,WNW,293,0.9,1.3,64,0.00,,,0.00,WUHU216HW,2013-03-10 02:21:00,
2013-03-09 18:26:00,49.7,38.0,30.08,NW,315,0.8,1.6,64,0.00,,,0.00,WUHU216HW,2013-03-10 02:26:00,
2013-03-09 18:31:00,49.5,37.8,30.07,NW,315,0.7,1.6,64,0.00,,,0.00,WUHU216HW,2013-03-10 02:31:00,
2013-03-09 18:36:00,49.3,37.6,30.07,NW,315,0.7,1.1,64,0.00,,,0.00,WUHU216HW,2013-03-10 02:36:00,
2013-03-09 18:41:00,49.0,37.3,30.07,NNW,338,0.4,1.1,64,0.00,,,0.00,WUHU216HW,2013-03-10 02:41:00,
2013-03-09 18:46:00,48.8,37.5,30.08,NNW,338,0.0,0.7,65,0.00,,,0.00,WUHU216HW,2013-03-10 02:46:00,
2013-03-09 18:51:00,48.4,37.2,30.08,WNW,293,0.7,0.7,65,0.00,,,0.00,WUHU216HW,2013-03-10 02:51:00,
2013-03-09 18:56:00,48.1,37.2,30.08,NNW,338,0.9,1.3,66,0.00,,,0.00,WUHU216HW,2013-03-10 02:56:00,
2013-03-09 19:01:00,47.9,37.0,30.09,NW,315,1.4,1.8,66,0.00,,,0.00,WUHU216HW,2013-03-10 03:01:00,
2013-03-09 19:06:00,47.5,37.1,30.09,NW,315,1.1,1.8,67,0.00,,,0.00,WUHU216HW,2013-03-10 03:06:00,
2013-03-09 19:11:00,47.3,36.9,30.09,WNW,297,0.9,1.1,67,0.00,,,0.00,WUHU216HW,2013-03-10 03:11:00,
2013-03-09 19:16:00,47.2,37.2,30.09,NW,315,1.1,1.1,68,0.00,,,0.00,WUHU216HW,2013-03-10 03:16:00,
2013-03-09 19:21:00,47.0,37.0,30.09,NW,315,0.0,1.3,68,0.00,,,0.00,WUHU216HW,2013-03-10 03:21:00,
2013-03-09 19:26:00,46.8,36.8,30.09,WNW,293,0.4,1.3,68,0.00,,,0.00,WUHU216HW,2013-03-10 03:26:00,
2013-03-09 19:31:00,46.4,36.5,30.09,WNW,293,0.4,0.7,68,0.00,,,0.00,WUHU216HW,2013-03-10 03:31:00,
2013-03-09 19:36:00,46.3,36.3,30.09,WNW,293,0.2,0.7,68,0.00,,,0.00,WUHU216HW,2013-03-10 03:36:00,
2013-03-09 19:41:00,45.9,36.4,30.09,WNW,293,0.3,0.4,69,0.00,,,0.00,WUHU216HW,2013-03-10 03:41:00,
2013-03-09 19:46:00,45.7,36.5,30.09,WNW,293,0.4,0.4,70,0.00,,,0.00,WUHU216HW,2013-03-10 03:46:00,
2013-03-09 19:51:00,45.4,36.2,30.09,NW,315,0.7,1.1,70,0.00,,,0.00,WUHU216HW,2013-03-10 03:51:00,
2013-03-09 19:56:00,45.2,36.4,30.09,NW,315,0.0,1.1,71,0.00,,,0.00,WUHU216HW,2013-03-10 03:56:00,
2013-03-09 20:01:00,45.0,36.2,30.10,NW,315,0.0,0.0,71,0.00,,,0.00,WUHU216HW,2013-03-10 04:01:00,
2013-03-09 20:06:00,44.8,36.0,30.10,NW,315,0.0,0.0,71,0.00,,,0.00,WUHU216HW,2013-03-10 04:06:00,
2013-03-09 20:11:00,44.6,36.2,30.10,ESE,113,2.2,2.2,72,0.00,,,0.00,WUHU216HW,2013-03-10 04:11:00,
2013-03-09 20:16:00,44.6,36.5,30.10,NW,315,1.3,2.5,73,0.00,,,0.00,WUHU216HW,2013-03-10 04:16:00,
2013-03-09 20:21:00,45.2,37.0,30.10,NNW,338,0.4,2.5,73,0.00,,,0.00,WUHU216HW,2013-03-10 04:21:00,
2013-03-09 20:26:00,45.2,37.0,30.10,NW,315,1.8,1.8,73,0.00,,,0.00,WUHU216HW,2013-03-10 04:26:00,
2013-03-09 20:31:00,45.2,37.0,30.10,NW,315,0.9,1.8,73,0.00,,,0.00,WUHU216HW,2013-03-10 04:31:00,
2013-03-09 20:36:00,45.0,36.8,30.10,NW,315,1.4,1.8,73,0.00,,,0.00,WUHU216HW,2013-03-10 04:36:00,
2013-03-09 20:41:00,45.0,36.8,30.10,NNW,338,0.4,1.8,73,0.00,,,0.00,WUHU216HW,2013-03-10 04:41:00,
2013-03-09 20:46:00,44.6,36.8,30.10,NW,315,0.3,1.1,74,0.00,,,0.00,WUHU216HW,2013-03-10 04:46:00,
2013-03-09 20:51:00,44.5,36.6,30.11,NNW,338,0.0,0.9,74,0.00,,,0.00,WUHU216HW,2013-03-10 04:51:00,
2013-03-09 20:56:00,44.3,36.5,30.11,NNW,338,0.0,0.0,74,0.00,,,0.00,WUHU216HW,2013-03-10 04:56:00,
2013-03-09 21:00:00,44.3,36.5,30.11,NNW,338,0.0,0.0,74,0.00,,,0.00,WUHU216HW,2013-03-10 05:00:00,
2013-03-09 21:05:00,44.1,36.4,30.11,NNW,338,0.0,0.0,74,0.00,,,0.00,WUHU216HW,2013-03-10 05:05:00,
2013-03-09 21:10:00,43.9,36.2,30.11,NNW,338,0.0,0.0,74,0.00,,,0.00,WUHU216HW,2013-03-10 05:10:00,
2013-03-09 21:15:00,43.6,35.8,30.11,NNW,338,0.0,0.0,74,0.00,,,0.00,WUHU216HW,2013-03-10 05:15:00,
2013-03-09 21:20:00,43.6,36.2,30.11,NNW,338,0.4,0.4,75,0.00,,,0.00,WUHU216HW,2013-03-10 05:20:00,
2013-03-09 21:25:00,43.6,36.5,30.12,NNW,338,0.0,1.1,76,0.00,,,0.00,WUHU216HW,2013-03-10 05:25:00,
2013-03-09 21:30:00,43.6,36.5,30.11,NW,315,1.1,1.1,76,0.00,,,0.00,WUHU216HW,2013-03-10 05:30:00,
2013-03-09 21:35:00,43.4,36.3,30.12,NE,52,0.5,1.1,76,0.00,,,0.00,WUHU216HW,2013-03-10 05:35:00,
2013-03-09 21:40:00,43.2,35.8,30.12,North,10,0.3,1.1,75,0.00,,,0.00,WUHU216HW,2013-03-10 05:40:00,
2013-03-09 21:45:00,43.0,36.0,30.12,North,0,0.0,0.4,76,0.00,,,0.00,WUHU216HW,2013-03-10 05:45:00,
2013-03-09 21:50:00,42.8,35.8,30.12,North,0,0.0,0.0,76,0.00,,,0.00,WUHU216HW,2013-03-10 05:50:00,
2013-03-09 21:55:00,42.8,35.8,30.12,NW,315,1.8,1.8,76,0.00,,,0.00,WUHU216HW,2013-03-10 05:55:00,
2013-03-09 22:00:00,42.7,35.9,30.12,NW,315,1.3,1.8,77,0.00,,,0.00,WUHU216HW,2013-03-10 06:00:00,
2013-03-09 22:05:00,42.5,35.7,30.12,NW,315,0.7,1.8,77,0.00,,,0.00,WUHU216HW,2013-03-10 06:05:00,
2013-03-09 22:10:00,42.5,35.7,30.12,NW,315,0.0,1.8,77,0.00,,,0.00,WUHU216HW,2013-03-10 06:10:00,
2013-03-09 22:15:00,42.3,35.6,30.12,NW,315,0.0,0.4,77,0.00,,,0.00,WUHU216HW,2013-03-10 06:15:00,
2013-03-09 22:20:00,41.9,35.2,30.13,NW,315,0.4,0.4,77,0.00,,,0.00,WUHU216HW,2013-03-10 06:20:00,
2013-03-09 22:25:00,41.8,35.0,30.13,NW,315,0.0,0.4,77,0.00,,,0.00,WUHU216HW,2013-03-10 06:25:00,
2013-03-09 22:30:00,41.4,34.7,30.13,NW,315,0.0,0.0,77,0.00,,,0.00,WUHU216HW,2013-03-10 06:30:00,
2013-03-09 22:35:00,41.2,34.5,30.13,NW,315,0.0,0.0,77,0.00,,,0.00,WUHU216HW,2013-03-10 06:35:00,
2013-03-09 22:40:00,41.0,34.3,30.13,NW,315,0.4,0.4,77,0.00,,,0.00,WUHU216HW,2013-03-10 06:40:00,
2013-03-09 22:45:00,40.7,33.9,30.13,WNW,284,0.4,0.7,77,0.00,,,0.00,WUHU216HW,2013-03-10 06:45:00,
2013-03-09 22:50:00,40.5,34.1,30.13,WNW,293,0.2,0.7,78,0.00,,,0.00,WUHU216HW,2013-03-10 06:50:00,
2013-03-09 22:55:00,40.5,34.1,30.12,WNW,293,0.0,0.4,78,0.00,,,0.00,WUHU216HW,2013-03-10 06:55:00,
2013-03-09 23:00:00,40.3,33.9,30.12,WNW,293,0.0,0.0,78,0.00,,,0.00,WUHU216HW,2013-03-10 07:00:00,
2013-03-09 23:05:00,40.1,33.9,30.12,WNW,293,0.0,0.0,78,0.00,,,0.00,WUHU216HW,2013-03-10 07:05:00,
2013-03-09 23:10:00,39.8,33.9,30.12,West,270,0.0,0.7,79,0.00,,,0.00,WUHU216HW,2013-03-10 07:10:00,
2013-03-09 23:15:00,39.8,33.9,30.12,West,270,0.0,0.7,79,0.00,,,0.00,WUHU216HW,2013-03-10 07:15:00,
2013-03-09 23:20:00,39.6,33.7,30.12,NNW,338,0.4,0.4,79,0.00,,,0.00,WUHU216HW,2013-03-10 07:20:00,
2013-03-09 23:25:00,39.6,33.7,30.13,NW,315,0.3,0.4,79,0.00,,,0.00,WUHU216HW,2013-03-10 07:25:00,
2013-03-09 23:30:00,39.6,33.7,30.12,NW,315,0.0,0.4,79,0.00,,,0.00,WUHU216HW,2013-03-10 07:30:00,
2013-03-09 23:35:00,39.6,33.7,30.12,NW,315,0.0,0.0,79,0.00,,,0.00,WUHU216HW,2013-03-10 07:35:00,
2013-03-09 23:40:00,39.4,33.5,30.12,NW,315,0.0,0.0,79,0.00,,,0.00,WUHU216HW,2013-03-10 07:40:00,
2013-03-09 23:45:00,39.2,33.3,30.12,NW,315,0.0,0.0,79,0.00,,,0.00,WUHU216HW,2013-03-10 07:45:00,
2013-03-09 23:50:00,39.1,33.1,30.12,NW,315,0.0,0.0,79,0.00,,,0.00,WUHU216HW,2013-03-10 07:50:00,
2013-03-09 23:55:00,38.9,32.9,30.12,NW,315,0.6,1.6,79,0.00,,,0.00,WUHU216HW,2013-03-10 07:55:00,